Flight Track Log - Related Links

Times and Time Zones

All times are in EST time to prevent confusion due to time zone crossing. See the EJA951 flight status page for this flight to view local times or setup timezone preferences in your user account.

Time Position Orientation Groundspeed Altitude Reporting Facility
EST Latitude Longitude Course Direction KTS MPH feet Rate Location/Type
Thu 06:38:47 PM 39.8667 -75.2667 237° Southwest 173 199 700  Level Philadelphia TRACON
Thu 06:39:18 PM 39.8500 -75.3000 237° Southwest 173 199 2,500 3,117 Climbing Philadelphia TRACON
Thu 06:41:46 PM 39.8731 -75.4908 279° West 258 297 10,000 2,184 Climbing New York Center
Thu 06:42:44 PM 39.8961 -75.5925 286° West 275 316 10,000 1,008 Level New York Center
Thu 06:43:45 PM 39.9169 -75.6914 285° West 314 361 12,000 2,066 Climbing New York Center
Thu 06:44:46 PM 39.9139 -75.8183 268° West 320 368 14,200 2,380 Climbing New York Center
Thu 06:45:46 PM 39.9136 -75.9214 270° West 327 376 16,800 2,390 Climbing New York Center
Thu 06:46:44 PM 39.9128 -76.0322 269° West 322 371 18,900 1,600 Climbing New York Center
Thu 06:47:46 PM 39.9094 -76.1511 268° West 322 371 20,000 541 Climbing New York Center
Thu 06:48:46 PM 39.9097 -76.2811 270° West 344 396 20,000  Level New York Center
Thu 06:49:46 PM 39.9178 -76.4225 274° West 359 413 20,000  Level New York Center
Thu 06:50:44 PM 39.9286 -76.5425 277° West 370 426 20,000  Level New York Center
Thu 06:51:45 PM 39.9386 -76.6733 276° West 370 426 20,000  Level New York Center
Thu 06:52:46 PM 39.9489 -76.8042 276° West 370 426 20,000  Level New York Center
Thu 06:53:44 PM 39.9586 -76.9350 276° West 370 426 20,000  Level New York Center
Thu 06:54:44 PM 39.9683 -77.0686 275° West 370 426 20,000  Level New York Center
Thu 06:55:45 PM 39.9781 -77.1969 276° West 370 426 20,000  Level New York Center
Thu 06:56:46 PM 39.9875 -77.3278 275° West 370 426 20,000  Level New York Center
Thu 06:57:46 PM 39.9967 -77.4614 275° West 370 426 20,000  Level New York Center
Thu 06:58:44 PM 40.0058 -77.5953 275° West 370 426 20,000  Level New York Center
Thu 06:59:33 PM 40.0136 -77.7025 275° West 368 423 20,000  Level Cleveland Center
Thu 07:00:35 PM 40.0228 -77.8347 275° West 368 423 20,000  Level Cleveland Center
Thu 07:01:38 PM 40.0325 -77.9719 275° West 364 419 20,000 -48 Level Cleveland Center
Thu 07:02:40 PM 40.0406 -78.1017 275° West 362 417 19,900 -484 Descending Cleveland Center
Thu 07:03:42 PM 40.0508 -78.2547 275° West 357 411 19,000 -435 Descending Cleveland Center
Thu 07:04:44 PM 40.0597 -78.3850 275° West 359 413 19,000  Level Cleveland Center
Thu 07:05:46 PM 40.0681 -78.5228 275° West 372 428 19,000 -581 Level Cleveland Center
Thu 07:06:48 PM 40.0758 -78.6558 274° West 373 429 17,800 -1,348 Descending Cleveland Center
Thu 07:07:15 PM 40.0794 -78.7278 274° West 360 414 17,000 -1,645 Descending Cleveland Center
Thu 07:07:50 PM 40.0831 -78.7881 274° West 367 422 16,100 -2,167 Descending Cleveland Center
Thu 07:07:51 PM 40.0850 -78.8158 275° West 371 427 15,700 -1,839 Descending Cleveland Center
Thu 07:08:52 PM 40.0917 -78.9228 275° West 372 428 14,200 -1,770 Descending Cleveland Center
Thu 07:09:53 PM 40.0983 -79.0633 274° West 306 352 12,100 -2,032 Descending Cleveland Center
Thu 07:09:54 PM 40.1006 -79.0653 326° Northwest 323 372 12,100 -1,500 Level Cleveland Center
Thu 07:10:53 PM 40.1028 -79.1597 272° West 251 289 10,600 -1,452 Descending Cleveland Center
Thu 07:10:56 PM 40.1061 -79.1636 318° Northwest 277 319 10,600 -2,091 Level Cleveland Center
Thu 07:11:59 PM 40.1106 -79.2522 274° West 254 292 8,300 -1,968 Descending Cleveland Center
Thu 07:13:01 PM 40.1142 -79.3469 273° West 234 269 6,500 -1,548 Descending Cleveland Center
Thu 07:14:03 PM 40.1192 -79.4181 275° West 234 269 5,100 -726 Descending Cleveland Center
Thu 07:15:05 PM 40.1242 -79.5194 274° West 233 268 5,000 -48 Descending Cleveland Center
Thu 07:16:07 PM 40.1297 -79.6028 275° West 231 266 5,000  Level Cleveland Center
Thu 07:17:09 PM 40.1669 -79.6667 307° West 224 258 5,000  Level Cleveland Center
Thu 07:18:11 PM 40.2075 -79.7300 310° West 226 260 5,000 -387 Level Cleveland Center
Thu 07:19:13 PM 40.2617 -79.7608 337° Northwest 217 250 4,200 -919 Descending Cleveland Center
Thu 07:20:15 PM 40.3092 -79.7969 330° Northwest 204 235 3,100 -774 Descending Cleveland Center
Thu 07:21:17 PM 40.3522 -79.8389 323° Northwest 181 208 2,600 -629 Descending Cleveland Center
Thu 07:22:19 PM 40.3553 -79.8853 275° West 147 169 1,800 -629 Descending Cleveland Center
Thu 07:23:21 PM 40.3550 -79.9314 270° West 131 151 1,300 -484 Descending Cleveland Center
Thu 07:25:00 PM 40.3544 -79.9302 North  Level Estimated

Login

Don't have an account? Register now (free) for customized features, flight alerts, and more!